sensor_id;sensor_type;location;lat;lon;timestamp;P1;durP1;ratioP1;P2;durP2;ratioP2
8652;SDS011;4364;52.426;9.424;2022-07-23T00:00:23;12.37;;;8.97;;
8652;SDS011;4364;52.426;9.424;2022-07-23T00:03:00;12.93;;;9.50;;
8652;SDS011;4364;52.426;9.424;2022-07-23T00:05:27;12.63;;;9.27;;
8652;SDS011;4364;52.426;9.424;2022-07-23T00:07:53;11.77;;;9.13;;
8652;SDS011;4364;52.426;9.424;2022-07-23T00:10:20;11.73;;;8.50;;
8652;SDS011;4364;52.426;9.424;2022-07-23T00:12:47;11.53;;;8.60;;
8652;SDS011;4364;52.426;9.424;2022-07-23T00:15:17;14.00;;;8.47;;
8652;SDS011;4364;52.426;9.424;2022-07-23T00:17:45;8.67;;;7.47;;
8652;SDS011;4364;52.426;9.424;2022-07-23T00:20:13;10.10;;;7.90;;
8652;SDS011;4364;52.426;9.424;2022-07-23T00:23:13;10.17;;;7.80;;
8652;SDS011;4364;52.426;9.424;2022-07-23T00:25:34;11.47;;;8.43;;
8652;SDS011;4364;52.426;9.424;2022-07-23T00:28:01;12.60;;;9.57;;
8652;SDS011;4364;52.426;9.424;2022-07-23T00:30:28;11.20;;;9.23;;
8652;SDS011;4364;52.426;9.424;2022-07-23T00:32:58;9.47;;;7.37;;
8652;SDS011;4364;52.426;9.424;2022-07-23T00:35:31;10.97;;;8.40;;
8652;SDS011;4364;52.426;9.424;2022-07-23T00:37:59;10.20;;;7.50;;
8652;SDS011;4364;52.426;9.424;2022-07-23T00:40:27;13.00;;;10.23;;
8652;SDS011;4364;52.426;9.424;2022-07-23T00:42:55;14.77;;;9.93;;
8652;SDS011;4364;52.426;9.424;2022-07-23T00:45:22;11.30;;;9.67;;
8652;SDS011;4364;52.426;9.424;2022-07-23T00:47:49;13.00;;;9.77;;
8652;SDS011;4364;52.426;9.424;2022-07-23T00:50:17;16.77;;;10.60;;
8652;SDS011;4364;52.426;9.424;2022-07-23T00:52:43;13.23;;;9.40;;
8652;SDS011;4364;52.426;9.424;2022-07-23T00:55:11;12.20;;;9.10;;
8652;SDS011;4364;52.426;9.424;2022-07-23T00:57:39;12.17;;;9.57;;
8652;SDS011;4364;52.426;9.424;2022-07-23T01:00:08;12.03;;;9.93;;
8652;SDS011;4364;52.426;9.424;2022-07-23T01:02:37;14.07;;;9.87;;
8652;SDS011;4364;52.426;9.424;2022-07-23T01:05:04;11.87;;;8.97;;
8652;SDS011;4364;52.426;9.424;2022-07-23T01:07:31;12.13;;;8.60;;
8652;SDS011;4364;52.426;9.424;2022-07-23T01:09:59;11.63;;;9.23;;
8652;SDS011;4364;52.426;9.424;2022-07-23T01:12:26;10.53;;;8.67;;
8652;SDS011;4364;52.426;9.424;2022-07-23T01:14:54;12.77;;;9.43;;
8652;SDS011;4364;52.426;9.424;2022-07-23T01:17:22;12.30;;;9.80;;
8652;SDS011;4364;52.426;9.424;2022-07-23T01:19:49;11.97;;;9.13;;
8652;SDS011;4364;52.426;9.424;2022-07-23T01:22:17;10.70;;;8.83;;
8652;SDS011;4364;52.426;9.424;2022-07-23T01:24:46;11.40;;;8.80;;
8652;SDS011;4364;52.426;9.424;2022-07-23T01:27:16;13.27;;;9.80;;
8652;SDS011;4364;52.426;9.424;2022-07-23T01:29:45;13.70;;;9.53;;
8652;SDS011;4364;52.426;9.424;2022-07-23T01:32:16;11.33;;;9.43;;
8652;SDS011;4364;52.426;9.424;2022-07-23T01:34:43;12.33;;;9.20;;
8652;SDS011;4364;52.426;9.424;2022-07-23T01:37:11;11.07;;;9.03;;
8652;SDS011;4364;52.426;9.424;2022-07-23T01:39:38;11.80;;;9.60;;
8652;SDS011;4364;52.426;9.424;2022-07-23T01:42:06;10.70;;;8.83;;
8652;SDS011;4364;52.426;9.424;2022-07-23T01:44:33;12.87;;;9.27;;
8652;SDS011;4364;52.426;9.424;2022-07-23T01:47:00;11.57;;;8.93;;
8652;SDS011;4364;52.426;9.424;2022-07-23T01:49:27;10.43;;;9.10;;
8652;SDS011;4364;52.426;9.424;2022-07-23T01:52:29;10.67;;;9.43;;
8652;SDS011;4364;52.426;9.424;2022-07-23T01:54:55;9.90;;;8.27;;
8652;SDS011;4364;52.426;9.424;2022-07-23T01:57:22;10.87;;;9.20;;
8652;SDS011;4364;52.426;9.424;2022-07-23T01:59:49;12.07;;;9.00;;
8652;SDS011;4364;52.426;9.424;2022-07-23T02:02:20;10.23;;;9.23;;
8652;SDS011;4364;52.426;9.424;2022-07-23T02:04:47;14.00;;;9.20;;
8652;SDS011;4364;52.426;9.424;2022-07-23T02:07:16;12.37;;;9.10;;
8652;SDS011;4364;52.426;9.424;2022-07-23T02:09:43;10.80;;;9.10;;
8652;SDS011;4364;52.426;9.424;2022-07-23T02:12:12;10.10;;;9.07;;
8652;SDS011;4364;52.426;9.424;2022-07-23T02:14:38;12.70;;;9.30;;
8652;SDS011;4364;52.426;9.424;2022-07-23T02:17:05;12.63;;;9.47;;
8652;SDS011;4364;52.426;9.424;2022-07-23T02:19:34;11.03;;;9.80;;
8652;SDS011;4364;52.426;9.424;2022-07-23T02:22:00;11.87;;;10.13;;
8652;SDS011;4364;52.426;9.424;2022-07-23T02:24:27;12.93;;;10.07;;
8652;SDS011;4364;52.426;9.424;2022-07-23T02:26:54;13.43;;;10.17;;
8652;SDS011;4364;52.426;9.424;2022-07-23T02:29:20;17.30;;;10.47;;
8652;SDS011;4364;52.426;9.424;2022-07-23T02:31:50;13.50;;;10.30;;
8652;SDS011;4364;52.426;9.424;2022-07-23T02:34:17;10.17;;;9.17;;
8652;SDS011;4364;52.426;9.424;2022-07-23T02:36:48;11.77;;;9.73;;
8652;SDS011;4364;52.426;9.424;2022-07-23T02:39:16;10.37;;;8.77;;
8652;SDS011;4364;52.426;9.424;2022-07-23T02:41:43;13.60;;;9.80;;
8652;SDS011;4364;52.426;9.424;2022-07-23T02:44:10;10.83;;;9.33;;
8652;SDS011;4364;52.426;9.424;2022-07-23T02:46:38;11.20;;;9.77;;
8652;SDS011;4364;52.426;9.424;2022-07-23T02:49:05;10.67;;;9.33;;
8652;SDS011;4364;52.426;9.424;2022-07-23T02:51:32;14.27;;;10.30;;
8652;SDS011;4364;52.426;9.424;2022-07-23T02:54:02;12.30;;;9.10;;
8652;SDS011;4364;52.426;9.424;2022-07-23T02:56:29;12.30;;;9.43;;
8652;SDS011;4364;52.426;9.424;2022-07-23T02:58:56;12.73;;;10.60;;
8652;SDS011;4364;52.426;9.424;2022-07-23T03:01:23;15.00;;;10.13;;
8652;SDS011;4364;52.426;9.424;2022-07-23T03:03:50;14.40;;;10.70;;
8652;SDS011;4364;52.426;9.424;2022-07-23T03:06:20;14.70;;;10.90;;
8652;SDS011;4364;52.426;9.424;2022-07-23T03:08:48;13.60;;;10.50;;
8652;SDS011;4364;52.426;9.424;2022-07-23T03:11:15;13.20;;;10.40;;
8652;SDS011;4364;52.426;9.424;2022-07-23T03:13:43;12.37;;;10.00;;
8652;SDS011;4364;52.426;9.424;2022-07-23T03:16:10;11.20;;;9.97;;
8652;SDS011;4364;52.426;9.424;2022-07-23T03:18:36;13.97;;;10.27;;
8652;SDS011;4364;52.426;9.424;2022-07-23T03:21:06;15.53;;;11.03;;
8652;SDS011;4364;52.426;9.424;2022-07-23T03:23:32;12.20;;;10.30;;
8652;SDS011;4364;52.426;9.424;2022-07-23T03:26:00;15.53;;;11.13;;
8652;SDS011;4364;52.426;9.424;2022-07-23T03:28:27;12.20;;;10.13;;
8652;SDS011;4364;52.426;9.424;2022-07-23T03:30:54;15.43;;;11.53;;
8652;SDS011;4364;52.426;9.424;2022-07-23T03:33:20;13.00;;;11.30;;
8652;SDS011;4364;52.426;9.424;2022-07-23T03:35:47;13.53;;;11.10;;
8652;SDS011;4364;52.426;9.424;2022-07-23T03:38:29;14.03;;;12.17;;
8652;SDS011;4364;52.426;9.424;2022-07-23T03:40:56;13.63;;;11.00;;
8652;SDS011;4364;52.426;9.424;2022-07-23T03:43:23;14.23;;;11.63;;
8652;SDS011;4364;52.426;9.424;2022-07-23T03:45:52;14.47;;;11.80;;
8652;SDS011;4364;52.426;9.424;2022-07-23T03:48:19;14.13;;;11.20;;
8652;SDS011;4364;52.426;9.424;2022-07-23T03:50:46;17.53;;;12.17;;
8652;SDS011;4364;52.426;9.424;2022-07-23T03:53:13;15.53;;;11.90;;
8652;SDS011;4364;52.426;9.424;2022-07-23T03:55:39;17.70;;;12.53;;
8652;SDS011;4364;52.426;9.424;2022-07-23T03:58:06;16.90;;;12.27;;
8652;SDS011;4364;52.426;9.424;2022-07-23T04:00:32;16.83;;;13.20;;
8652;SDS011;4364;52.426;9.424;2022-07-23T04:02:59;15.83;;;12.93;;
8652;SDS011;4364;52.426;9.424;2022-07-23T04:05:31;16.27;;;13.10;;
8652;SDS011;4364;52.426;9.424;2022-07-23T04:08:11;16.33;;;12.73;;
8652;SDS011;4364;52.426;9.424;2022-07-23T04:10:42;17.33;;;13.10;;
8652;SDS011;4364;52.426;9.424;2022-07-23T04:13:11;16.87;;;13.27;;
8652;SDS011;4364;52.426;9.424;2022-07-23T04:15:38;14.63;;;12.13;;
8652;SDS011;4364;52.426;9.424;2022-07-23T04:18:05;13.43;;;12.03;;
8652;SDS011;4364;52.426;9.424;2022-07-23T04:20:45;15.90;;;12.13;;
8652;SDS011;4364;52.426;9.424;2022-07-23T04:23:12;17.30;;;11.77;;
8652;SDS011;4364;52.426;9.424;2022-07-23T04:25:39;14.47;;;12.07;;
8652;SDS011;4364;52.426;9.424;2022-07-23T04:28:06;17.33;;;12.83;;
8652;SDS011;4364;52.426;9.424;2022-07-23T04:30:33;14.40;;;11.23;;
8652;SDS011;4364;52.426;9.424;2022-07-23T04:33:01;17.13;;;12.43;;
8652;SDS011;4364;52.426;9.424;2022-07-23T04:35:33;16.03;;;12.53;;
8652;SDS011;4364;52.426;9.424;2022-07-23T04:38:10;16.23;;;12.37;;
8652;SDS011;4364;52.426;9.424;2022-07-23T04:40:37;16.60;;;12.53;;
8652;SDS011;4364;52.426;9.424;2022-07-23T04:43:04;15.17;;;12.13;;
8652;SDS011;4364;52.426;9.424;2022-07-23T04:45:35;17.47;;;12.93;;
8652;SDS011;4364;52.426;9.424;2022-07-23T04:48:01;18.07;;;13.33;;
8652;SDS011;4364;52.426;9.424;2022-07-23T04:50:28;18.77;;;13.80;;
8652;SDS011;4364;52.426;9.424;2022-07-23T04:52:57;15.43;;;11.97;;
8652;SDS011;4364;52.426;9.424;2022-07-23T04:55:24;17.03;;;13.07;;
8652;SDS011;4364;52.426;9.424;2022-07-23T04:57:52;15.40;;;12.47;;
8652;SDS011;4364;52.426;9.424;2022-07-23T05:00:22;18.67;;;13.77;;
8652;SDS011;4364;52.426;9.424;2022-07-23T05:02:50;16.20;;;12.47;;
8652;SDS011;4364;52.426;9.424;2022-07-23T05:05:17;17.10;;;13.73;;
8652;SDS011;4364;52.426;9.424;2022-07-23T05:07:44;15.50;;;12.23;;
8652;SDS011;4364;52.426;9.424;2022-07-23T05:10:12;20.40;;;14.73;;
8652;SDS011;4364;52.426;9.424;2022-07-23T05:12:38;16.70;;;13.80;;
8652;SDS011;4364;52.426;9.424;2022-07-23T05:15:05;15.30;;;12.40;;
8652;SDS011;4364;52.426;9.424;2022-07-23T05:17:32;14.60;;;12.57;;
8652;SDS011;4364;52.426;9.424;2022-07-23T05:20:02;18.93;;;13.00;;
8652;SDS011;4364;52.426;9.424;2022-07-23T05:22:29;18.67;;;13.60;;
8652;SDS011;4364;52.426;9.424;2022-07-23T05:24:56;16.53;;;13.07;;
8652;SDS011;4364;52.426;9.424;2022-07-23T05:27:23;23.40;;;16.53;;
8652;SDS011;4364;52.426;9.424;2022-07-23T05:29:50;18.77;;;15.07;;
8652;SDS011;4364;52.426;9.424;2022-07-23T05:32:17;17.00;;;15.03;;
8652;SDS011;4364;52.426;9.424;2022-07-23T05:34:52;18.70;;;15.27;;
8652;SDS011;4364;52.426;9.424;2022-07-23T05:37:20;19.73;;;15.53;;
8652;SDS011;4364;52.426;9.424;2022-07-23T05:39:47;18.13;;;15.47;;
8652;SDS011;4364;52.426;9.424;2022-07-23T05:42:14;16.30;;;12.77;;
8652;SDS011;4364;52.426;9.424;2022-07-23T05:44:41;19.33;;;15.43;;
8652;SDS011;4364;52.426;9.424;2022-07-23T05:47:07;22.43;;;16.40;;
8652;SDS011;4364;52.426;9.424;2022-07-23T05:49:36;21.80;;;16.17;;
8652;SDS011;4364;52.426;9.424;2022-07-23T05:52:27;19.47;;;16.47;;
8652;SDS011;4364;52.426;9.424;2022-07-23T05:55:24;18.43;;;15.67;;
8652;SDS011;4364;52.426;9.424;2022-07-23T05:57:50;19.73;;;15.40;;
8652;SDS011;4364;52.426;9.424;2022-07-23T06:00:17;20.27;;;16.83;;
8652;SDS011;4364;52.426;9.424;2022-07-23T06:02:48;22.40;;;16.20;;
8652;SDS011;4364;52.426;9.424;2022-07-23T06:05:22;21.00;;;16.47;;
8652;SDS011;4364;52.426;9.424;2022-07-23T06:07:52;20.87;;;16.47;;
8652;SDS011;4364;52.426;9.424;2022-07-23T06:10:20;21.60;;;16.67;;
8652;SDS011;4364;52.426;9.424;2022-07-23T06:12:47;20.17;;;15.53;;
8652;SDS011;4364;52.426;9.424;2022-07-23T06:15:14;17.97;;;15.20;;
8652;SDS011;4364;52.426;9.424;2022-07-23T06:17:41;20.47;;;16.50;;
8652;SDS011;4364;52.426;9.424;2022-07-23T06:20:08;19.93;;;16.10;;
8652;SDS011;4364;52.426;9.424;2022-07-23T06:22:38;18.73;;;15.43;;
8652;SDS011;4364;52.426;9.424;2022-07-23T06:25:05;16.80;;;13.83;;
8652;SDS011;4364;52.426;9.424;2022-07-23T06:27:43;17.07;;;13.33;;
8652;SDS011;4364;52.426;9.424;2022-07-23T06:30:11;15.43;;;12.43;;
8652;SDS011;4364;52.426;9.424;2022-07-23T06:32:38;14.37;;;11.13;;
8652;SDS011;4364;52.426;9.424;2022-07-23T06:35:04;15.70;;;12.47;;
8652;SDS011;4364;52.426;9.424;2022-07-23T06:37:31;15.57;;;11.60;;
8652;SDS011;4364;52.426;9.424;2022-07-23T06:40:00;13.53;;;10.77;;
8652;SDS011;4364;52.426;9.424;2022-07-23T06:42:27;15.57;;;12.43;;
8652;SDS011;4364;52.426;9.424;2022-07-23T06:44:57;14.87;;;11.57;;
8652;SDS011;4364;52.426;9.424;2022-07-23T06:47:24;13.10;;;10.80;;
8652;SDS011;4364;52.426;9.424;2022-07-23T06:50:00;13.33;;;10.90;;
8652;SDS011;4364;52.426;9.424;2022-07-23T06:52:30;16.07;;;11.10;;
8652;SDS011;4364;52.426;9.424;2022-07-23T06:54:56;14.30;;;8.83;;
8652;SDS011;4364;52.426;9.424;2022-07-23T06:57:23;12.53;;;9.17;;
8652;SDS011;4364;52.426;9.424;2022-07-23T06:59:52;13.27;;;9.40;;
8652;SDS011;4364;52.426;9.424;2022-07-23T07:02:21;12.67;;;9.30;;
8652;SDS011;4364;52.426;9.424;2022-07-23T07:04:48;10.40;;;7.60;;
8652;SDS011;4364;52.426;9.424;2022-07-23T07:07:15;12.20;;;7.33;;
8652;SDS011;4364;52.426;9.424;2022-07-23T07:09:42;10.73;;;7.37;;
8652;SDS011;4364;52.426;9.424;2022-07-23T07:12:11;11.30;;;7.87;;
8652;SDS011;4364;52.426;9.424;2022-07-23T07:14:38;13.53;;;8.53;;
8652;SDS011;4364;52.426;9.424;2022-07-23T07:17:04;8.80;;;7.87;;
8652;SDS011;4364;52.426;9.424;2022-07-23T07:19:31;9.83;;;7.57;;
8652;SDS011;4364;52.426;9.424;2022-07-23T07:21:57;8.80;;;7.00;;
8652;SDS011;4364;52.426;9.424;2022-07-23T07:24:24;8.70;;;6.70;;
8652;SDS011;4364;52.426;9.424;2022-07-23T07:26:57;11.17;;;7.17;;
8652;SDS011;4364;52.426;9.424;2022-07-23T07:29:24;9.93;;;6.43;;
8652;SDS011;4364;52.426;9.424;2022-07-23T07:31:50;8.73;;;6.60;;
8652;SDS011;4364;52.426;9.424;2022-07-23T07:34:17;8.83;;;6.50;;
8652;SDS011;4364;52.426;9.424;2022-07-23T07:36:45;6.90;;;6.20;;
8652;SDS011;4364;52.426;9.424;2022-07-23T07:39:12;8.30;;;6.17;;
8652;SDS011;4364;52.426;9.424;2022-07-23T07:41:38;13.43;;;6.87;;
8652;SDS011;4364;52.426;9.424;2022-07-23T07:44:05;8.47;;;5.60;;
8652;SDS011;4364;52.426;9.424;2022-07-23T07:46:31;7.77;;;5.43;;
8652;SDS011;4364;52.426;9.424;2022-07-23T07:48:58;9.63;;;5.73;;
8652;SDS011;4364;52.426;9.424;2022-07-23T07:51:25;7.80;;;4.93;;
8652;SDS011;4364;52.426;9.424;2022-07-23T07:53:53;8.90;;;5.73;;
8652;SDS011;4364;52.426;9.424;2022-07-23T07:56:19;6.30;;;5.23;;
8652;SDS011;4364;52.426;9.424;2022-07-23T07:58:47;8.10;;;5.83;;
8652;SDS011;4364;52.426;9.424;2022-07-23T08:01:13;6.87;;;5.37;;
8652;SDS011;4364;52.426;9.424;2022-07-23T08:03:40;6.97;;;4.93;;
8652;SDS011;4364;52.426;9.424;2022-07-23T08:06:07;5.53;;;4.07;;
8652;SDS011;4364;52.426;9.424;2022-07-23T08:08:34;6.27;;;3.90;;
8652;SDS011;4364;52.426;9.424;2022-07-23T08:11:00;6.13;;;4.33;;
8652;SDS011;4364;52.426;9.424;2022-07-23T08:13:27;6.03;;;4.43;;
8652;SDS011;4364;52.426;9.424;2022-07-23T08:15:54;6.87;;;4.40;;
8652;SDS011;4364;52.426;9.424;2022-07-23T08:18:26;6.83;;;4.10;;
8652;SDS011;4364;52.426;9.424;2022-07-23T08:20:52;5.97;;;3.93;;
8652;SDS011;4364;52.426;9.424;2022-07-23T08:23:19;4.70;;;3.37;;
8652;SDS011;4364;52.426;9.424;2022-07-23T08:25:55;5.87;;;3.80;;
8652;SDS011;4364;52.426;9.424;2022-07-23T08:28:23;5.30;;;3.93;;
8652;SDS011;4364;52.426;9.424;2022-07-23T08:30:49;5.13;;;3.97;;
8652;SDS011;4364;52.426;9.424;2022-07-23T08:33:17;5.33;;;3.60;;
8652;SDS011;4364;52.426;9.424;2022-07-23T08:35:59;6.47;;;3.83;;
8652;SDS011;4364;52.426;9.424;2022-07-23T08:38:29;6.10;;;3.53;;
8652;SDS011;4364;52.426;9.424;2022-07-23T08:40:55;6.33;;;3.83;;
8652;SDS011;4364;52.426;9.424;2022-07-23T08:43:26;6.10;;;3.73;;
8652;SDS011;4364;52.426;9.424;2022-07-23T08:45:59;5.83;;;3.50;;
8652;SDS011;4364;52.426;9.424;2022-07-23T08:48:31;5.77;;;3.50;;
8652;SDS011;4364;52.426;9.424;2022-07-23T08:51:00;6.07;;;3.70;;
8652;SDS011;4364;52.426;9.424;2022-07-23T08:53:29;6.00;;;4.20;;
8652;SDS011;4364;52.426;9.424;2022-07-23T08:55:57;6.80;;;4.10;;
8652;SDS011;4364;52.426;9.424;2022-07-23T08:58:30;5.50;;;3.50;;
8652;SDS011;4364;52.426;9.424;2022-07-23T09:00:57;5.53;;;3.40;;
8652;SDS011;4364;52.426;9.424;2022-07-23T09:03:25;3.43;;;3.13;;
8652;SDS011;4364;52.426;9.424;2022-07-23T09:05:54;4.90;;;3.07;;
8652;SDS011;4364;52.426;9.424;2022-07-23T09:08:25;4.77;;;3.13;;
8652;SDS011;4364;52.426;9.424;2022-07-23T09:11:00;7.47;;;3.80;;
8652;SDS011;4364;52.426;9.424;2022-07-23T09:16:07;4.17;;;3.77;;
8652;SDS011;4364;52.426;9.424;2022-07-23T09:18:38;3.67;;;3.23;;
8652;SDS011;4364;52.426;9.424;2022-07-23T09:21:17;6.83;;;3.93;;
8652;SDS011;4364;52.426;9.424;2022-07-23T09:23:47;5.60;;;4.07;;
8652;SDS011;4364;52.426;9.424;2022-07-23T09:29:02;3.90;;;3.50;;
8652;SDS011;4364;52.426;9.424;2022-07-23T09:31:33;5.33;;;3.37;;
8652;SDS011;4364;52.426;9.424;2022-07-23T09:34:10;3.47;;;3.10;;
8652;SDS011;4364;52.426;9.424;2022-07-23T09:36:39;4.13;;;3.10;;
8652;SDS011;4364;52.426;9.424;2022-07-23T09:39:06;6.27;;;3.20;;
8652;SDS011;4364;52.426;9.424;2022-07-23T09:41:34;6.40;;;3.20;;
8652;SDS011;4364;52.426;9.424;2022-07-23T09:44:06;5.13;;;2.90;;
8652;SDS011;4364;52.426;9.424;2022-07-23T09:46:34;3.47;;;2.60;;
8652;SDS011;4364;52.426;9.424;2022-07-23T09:49:09;3.97;;;2.70;;
8652;SDS011;4364;52.426;9.424;2022-07-23T09:52:12;3.90;;;2.70;;
8652;SDS011;4364;52.426;9.424;2022-07-23T09:54:35;5.07;;;3.30;;
8652;SDS011;4364;52.426;9.424;2022-07-23T09:57:07;5.63;;;2.90;;
8652;SDS011;4364;52.426;9.424;2022-07-23T09:59:41;8.73;;;3.70;;
8652;SDS011;4364;52.426;9.424;2022-07-23T10:02:11;4.00;;;3.37;;
8652;SDS011;4364;52.426;9.424;2022-07-23T10:05:05;5.13;;;3.10;;
8652;SDS011;4364;52.426;9.424;2022-07-23T10:08:07;4.93;;;2.80;;
8652;SDS011;4364;52.426;9.424;2022-07-23T10:11:09;3.73;;;3.30;;
8652;SDS011;4364;52.426;9.424;2022-07-23T10:14:11;4.60;;;3.00;;
8652;SDS011;4364;52.426;9.424;2022-07-23T10:16:54;3.60;;;3.20;;
8652;SDS011;4364;52.426;9.424;2022-07-23T10:19:22;3.30;;;3.00;;
8652;SDS011;4364;52.426;9.424;2022-07-23T10:21:51;3.40;;;2.63;;
8652;SDS011;4364;52.426;9.424;2022-07-23T10:30:21;3.27;;;2.40;;
8652;SDS011;4364;52.426;9.424;2022-07-23T10:38:24;5.67;;;2.10;;
8652;SDS011;4364;52.426;9.424;2022-07-23T10:41:00;3.70;;;2.47;;
8652;SDS011;4364;52.426;9.424;2022-07-23T10:43:29;2.80;;;2.33;;
8652;SDS011;4364;52.426;9.424;2022-07-23T10:45:56;6.00;;;2.03;;
8652;SDS011;4364;52.426;9.424;2022-07-23T10:49:03;3.60;;;2.03;;
8652;SDS011;4364;52.426;9.424;2022-07-23T10:54:40;3.07;;;1.97;;
8652;SDS011;4364;52.426;9.424;2022-07-23T10:57:08;4.13;;;2.20;;
8652;SDS011;4364;52.426;9.424;2022-07-23T11:02:39;4.03;;;1.80;;
8652;SDS011;4364;52.426;9.424;2022-07-23T11:05:08;2.50;;;1.77;;
8652;SDS011;4364;52.426;9.424;2022-07-23T11:08:10;1.87;;;1.70;;
8652;SDS011;4364;52.426;9.424;2022-07-23T11:10:36;3.07;;;1.77;;
8652;SDS011;4364;52.426;9.424;2022-07-23T11:24:04;3.60;;;1.70;;
8652;SDS011;4364;52.426;9.424;2022-07-23T11:34:46;2.33;;;1.87;;
8652;SDS011;4364;52.426;9.424;2022-07-23T11:40:13;2.53;;;1.57;;
8652;SDS011;4364;52.426;9.424;2022-07-23T11:42:54;4.47;;;1.70;;
8652;SDS011;4364;52.426;9.424;2022-07-23T11:46:09;3.20;;;1.90;;
8652;SDS011;4364;52.426;9.424;2022-07-23T11:48:19;4.87;;;1.90;;
8652;SDS011;4364;52.426;9.424;2022-07-23T11:50:51;2.17;;;1.50;;
8652;SDS011;4364;52.426;9.424;2022-07-23T11:53:22;2.07;;;1.60;;
8652;SDS011;4364;52.426;9.424;2022-07-23T11:55:50;3.43;;;1.70;;
8652;SDS011;4364;52.426;9.424;2022-07-23T11:58:17;3.60;;;1.70;;
8652;SDS011;4364;52.426;9.424;2022-07-23T12:00:46;3.33;;;1.43;;
8652;SDS011;4364;52.426;9.424;2022-07-23T12:03:13;2.10;;;1.50;;
8652;SDS011;4364;52.426;9.424;2022-07-23T12:05:40;3.83;;;1.60;;
8652;SDS011;4364;52.426;9.424;2022-07-23T12:08:08;1.77;;;1.40;;
8652;SDS011;4364;52.426;9.424;2022-07-23T12:10:37;1.60;;;1.20;;
8652;SDS011;4364;52.426;9.424;2022-07-23T12:13:09;1.90;;;1.50;;
8652;SDS011;4364;52.426;9.424;2022-07-23T12:15:43;2.13;;;1.20;;
8652;SDS011;4364;52.426;9.424;2022-07-23T12:18:20;2.00;;;1.23;;
8652;SDS011;4364;52.426;9.424;2022-07-23T12:20:50;3.13;;;1.60;;
8652;SDS011;4364;52.426;9.424;2022-07-23T12:23:20;2.13;;;1.53;;
8652;SDS011;4364;52.426;9.424;2022-07-23T12:25:48;1.87;;;1.30;;
8652;SDS011;4364;52.426;9.424;2022-07-23T12:28:21;5.33;;;1.50;;
8652;SDS011;4364;52.426;9.424;2022-07-23T12:30:54;2.27;;;1.50;;
8652;SDS011;4364;52.426;9.424;2022-07-23T12:33:26;1.73;;;1.23;;
8652;SDS011;4364;52.426;9.424;2022-07-23T12:36:00;3.20;;;1.30;;
8652;SDS011;4364;52.426;9.424;2022-07-23T12:38:37;4.20;;;1.20;;
8652;SDS011;4364;52.426;9.424;2022-07-23T12:41:06;2.63;;;1.20;;
8652;SDS011;4364;52.426;9.424;2022-07-23T12:43:33;3.13;;;1.20;;
8652;SDS011;4364;52.426;9.424;2022-07-23T12:46:11;2.30;;;1.40;;
8652;SDS011;4364;52.426;9.424;2022-07-23T12:51:26;4.60;;;1.37;;
8652;SDS011;4364;52.426;9.424;2022-07-23T12:53:56;2.83;;;1.20;;
8652;SDS011;4364;52.426;9.424;2022-07-23T12:56:29;3.57;;;1.30;;
8652;SDS011;4364;52.426;9.424;2022-07-23T13:01:31;4.33;;;1.40;;
8652;SDS011;4364;52.426;9.424;2022-07-23T13:06:44;4.60;;;1.40;;
8652;SDS011;4364;52.426;9.424;2022-07-23T13:09:17;1.97;;;1.30;;
8652;SDS011;4364;52.426;9.424;2022-07-23T13:11:45;2.43;;;1.20;;
8652;SDS011;4364;52.426;9.424;2022-07-23T13:14:13;2.60;;;1.20;;
8652;SDS011;4364;52.426;9.424;2022-07-23T13:16:41;3.20;;;1.50;;
8652;SDS011;4364;52.426;9.424;2022-07-23T13:19:08;1.77;;;1.20;;
8652;SDS011;4364;52.426;9.424;2022-07-23T13:21:37;2.30;;;1.60;;
8652;SDS011;4364;52.426;9.424;2022-07-23T13:24:05;2.87;;;1.20;;
8652;SDS011;4364;52.426;9.424;2022-07-23T13:26:35;1.57;;;1.10;;
8652;SDS011;4364;52.426;9.424;2022-07-23T13:29:03;2.87;;;1.20;;
8652;SDS011;4364;52.426;9.424;2022-07-23T13:31:34;1.97;;;1.40;;
8652;SDS011;4364;52.426;9.424;2022-07-23T13:34:01;3.67;;;1.40;;
8652;SDS011;4364;52.426;9.424;2022-07-23T13:36:28;1.77;;;1.10;;
8652;SDS011;4364;52.426;9.424;2022-07-23T13:38:54;1.27;;;1.17;;
8652;SDS011;4364;52.426;9.424;2022-07-23T13:41:21;4.20;;;1.60;;
8652;SDS011;4364;52.426;9.424;2022-07-23T13:43:51;4.10;;;1.50;;
8652;SDS011;4364;52.426;9.424;2022-07-23T13:46:18;3.33;;;1.30;;
8652;SDS011;4364;52.426;9.424;2022-07-23T13:48:46;2.03;;;1.23;;
8652;SDS011;4364;52.426;9.424;2022-07-23T13:51:13;2.47;;;1.50;;
8652;SDS011;4364;52.426;9.424;2022-07-23T13:53:39;2.07;;;1.20;;
8652;SDS011;4364;52.426;9.424;2022-07-23T13:56:06;2.70;;;1.50;;
8652;SDS011;4364;52.426;9.424;2022-07-23T13:58:32;4.30;;;1.30;;
8652;SDS011;4364;52.426;9.424;2022-07-23T14:00:59;2.50;;;1.23;;
8652;SDS011;4364;52.426;9.424;2022-07-23T14:03:25;1.33;;;1.10;;
8652;SDS011;4364;52.426;9.424;2022-07-23T14:05:53;2.37;;;1.17;;
8652;SDS011;4364;52.426;9.424;2022-07-23T14:08:41;1.70;;;1.30;;
8652;SDS011;4364;52.426;9.424;2022-07-23T14:11:10;1.90;;;1.20;;
8652;SDS011;4364;52.426;9.424;2022-07-23T14:13:37;1.87;;;1.10;;
8652;SDS011;4364;52.426;9.424;2022-07-23T14:16:03;1.80;;;1.27;;
8652;SDS011;4364;52.426;9.424;2022-07-23T14:18:30;1.37;;;1.20;;
8652;SDS011;4364;52.426;9.424;2022-07-23T14:20:59;1.63;;;1.20;;
8652;SDS011;4364;52.426;9.424;2022-07-23T14:23:27;5.97;;;1.20;;
8652;SDS011;4364;52.426;9.424;2022-07-23T14:25:54;2.40;;;1.20;;
8652;SDS011;4364;52.426;9.424;2022-07-23T14:28:20;1.30;;;1.10;;
8652;SDS011;4364;52.426;9.424;2022-07-23T14:30:47;1.30;;;1.20;;
8652;SDS011;4364;52.426;9.424;2022-07-23T14:33:14;2.53;;;1.30;;
8652;SDS011;4364;52.426;9.424;2022-07-23T14:35:42;1.50;;;1.10;;
8652;SDS011;4364;52.426;9.424;2022-07-23T14:38:09;2.07;;;1.23;;
8652;SDS011;4364;52.426;9.424;2022-07-23T14:40:39;1.70;;;1.20;;
8652;SDS011;4364;52.426;9.424;2022-07-23T14:43:05;1.80;;;1.00;;
8652;SDS011;4364;52.426;9.424;2022-07-23T14:45:36;2.60;;;1.40;;
8652;SDS011;4364;52.426;9.424;2022-07-23T14:48:03;2.07;;;1.20;;
8652;SDS011;4364;52.426;9.424;2022-07-23T14:50:30;3.70;;;1.10;;
8652;SDS011;4364;52.426;9.424;2022-07-23T14:52:56;3.77;;;1.10;;
8652;SDS011;4364;52.426;9.424;2022-07-23T14:55:23;2.07;;;1.10;;
8652;SDS011;4364;52.426;9.424;2022-07-23T14:57:50;1.33;;;1.17;;
8652;SDS011;4364;52.426;9.424;2022-07-23T15:00:17;1.57;;;1.10;;
8652;SDS011;4364;52.426;9.424;2022-07-23T15:02:49;2.30;;;1.30;;
8652;SDS011;4364;52.426;9.424;2022-07-23T15:05:20;1.70;;;1.10;;
8652;SDS011;4364;52.426;9.424;2022-07-23T15:07:47;3.23;;;1.20;;
8652;SDS011;4364;52.426;9.424;2022-07-23T15:10:13;3.23;;;1.40;;
8652;SDS011;4364;52.426;9.424;2022-07-23T15:12:40;4.17;;;1.27;;
8652;SDS011;4364;52.426;9.424;2022-07-23T15:15:07;3.60;;;1.27;;
8652;SDS011;4364;52.426;9.424;2022-07-23T15:17:35;2.80;;;1.50;;
8652;SDS011;4364;52.426;9.424;2022-07-23T15:20:03;1.47;;;1.10;;
8652;SDS011;4364;52.426;9.424;2022-07-23T15:22:30;3.90;;;1.20;;
8652;SDS011;4364;52.426;9.424;2022-07-23T15:24:56;1.57;;;0.90;;
8652;SDS011;4364;52.426;9.424;2022-07-23T15:27:23;2.13;;;1.17;;
8652;SDS011;4364;52.426;9.424;2022-07-23T15:29:50;1.47;;;1.23;;
8652;SDS011;4364;52.426;9.424;2022-07-23T15:32:17;3.33;;;1.23;;
8652;SDS011;4364;52.426;9.424;2022-07-23T15:34:44;2.60;;;1.37;;
8652;SDS011;4364;52.426;9.424;2022-07-23T15:37:13;3.40;;;1.20;;
8652;SDS011;4364;52.426;9.424;2022-07-23T15:39:40;1.00;;;0.90;;
8652;SDS011;4364;52.426;9.424;2022-07-23T15:42:06;1.07;;;0.90;;
8652;SDS011;4364;52.426;9.424;2022-07-23T15:44:38;4.23;;;1.30;;
8652;SDS011;4364;52.426;9.424;2022-07-23T15:47:05;1.27;;;1.10;;
8652;SDS011;4364;52.426;9.424;2022-07-23T15:49:37;6.30;;;1.23;;
8652;SDS011;4364;52.426;9.424;2022-07-23T15:52:04;2.43;;;1.17;;
8652;SDS011;4364;52.426;9.424;2022-07-23T15:54:33;2.90;;;0.90;;
8652;SDS011;4364;52.426;9.424;2022-07-23T15:57:00;2.27;;;1.23;;
8652;SDS011;4364;52.426;9.424;2022-07-23T15:59:32;1.10;;;1.00;;
8652;SDS011;4364;52.426;9.424;2022-07-23T16:01:59;1.33;;;1.07;;
8652;SDS011;4364;52.426;9.424;2022-07-23T16:04:26;1.43;;;1.10;;
8652;SDS011;4364;52.426;9.424;2022-07-23T16:06:53;2.03;;;1.20;;
8652;SDS011;4364;52.426;9.424;2022-07-23T16:09:19;3.43;;;1.30;;
8652;SDS011;4364;52.426;9.424;2022-07-23T16:11:46;1.20;;;1.10;;